Archival Weather

Dallas-Fort Worth Intl

Dallas-Fort Worth, Texas (KDFW)

Report from: Thursday, September 21, 2023 7:53 PM CDT
Current time: Friday, February 23, 2024 2:33 PM CST

Current weather – Weather history – Daily summaries
Weather forecast

Temperature30.6°C (87.1°F)
Heat index33.4°C (92.0°F)
Dew point21.1°C (70.0°F)
Winds 4 kts (2.1 m/s, 4.6 mph) East-Southeast (110°)
Visibility10 mi. (16.1 km)
Clouds Few clouds 5,000 ft. (1,524 m)
Scattered clouds 18,000 ft. (5,486 m)
Ceiling: Broken clouds 25,000 ft. (7,620 m)
Altimeter29.93 in.Hg (1014 mB)
Relative humidity57 %
Density altitude2,149 ft. (655 m)
Sea-level pressure101.3 kPa (1013 mB, 29.90 in.Hg)
Remarks Automated weather observing station with precipitation discriminator
Cumulonimbus clouds observed distant northeast moving east towering cumulus clouds observed distant northwest
Flight conditions Visual Meteorological Conditions
Raw dataKDFW 220053Z 11004KT 10SM FEW050 SCT180 BKN250 31/21 A2993 RMK AO2 SLP125 CB DSNT NE MOV E TCU DSNT NW T03060211
An error has occurred. This application may no longer respond until reloaded. Reload 🗙